Cleveland, OH (44106)

8:06 PM EST on February 27, 2015 (GMT -0500)
Portage Escarpment | Change Station
CLOSE
Current Station
Personal Weather Station
Location: Cleveland, OH
Elevation: 738 ft
Nearby Weather Stations
Active Advisory: Winter Storm Watch Active Notice: Record Report, Local Storm Report

Elev 738 ft 41.51 °N, 81.60 °W | Updated 13 seconds ago

Clear
Clear
13.3 °F
Feels Like 13 °F
N
0.0
Wind Variable Wind from SW
Gusts 0.0 mph

Today
High -- | Low -- °F
--% Chance of Precip.
Yesterday
High -- | Low -- °F
Precip. -- in
7:04 AM 6:14 PM
Waxing Gibbous, 73% visible
Pressure 30.67 in
Visibility 10.0 miles
Clouds Clear
Windchill 13 °F
Dew Point -3 °F
Humidity 47%
Rainfall 0.00 in
Snow Depth Not available.
UV 0 out of 12
Pollen .40 out of 12
Air Quality Not available.
Flu Activity Not available.
METAR KBKL 280053Z 23005KT 10SM CLR M13/M19 A3063 RMK AO2 SLP384 T11281189

More Conditions Fewer Conditions

Pressure 30.67 in
Visibility 10.0 miles
Clouds Clear
Windchill 13 °F
Dew Point -3 °F
Humidity 47%
Rainfall 0.00 in
Snow Depth Not available.
UV 0 out of 12
Pollen .40 out of 12
Air Quality Not available.
Flu Activity Not available.
METAR KBKL 280053Z 23005KT 10SM CLR M13/M19 A3063 RMK AO2 SLP384 T11281189

More Conditions Fewer Conditions

10-Day Weather Forecast

Almanac

Astronomy

Feb. 27, 2015 Rise Set
Actual Time
Civil Twilight
Nautical Twilight
Astronomical Twilight
Moon
Length of Visible Light
Length of Day
Tomorrow will be .
, % of the Moon is Illuminated

Today's Extremes

State Highs State Lows

Community

WunderPhotos

Upload Photos

1,800,911 photos uploaded!

WunderBlogs® & News

Nearby

Air Quality

  Air Quality AQ Index Pollutant
Not available.

Snow Depth

Station Depth Elevation

Earthquake Activity

City Distance Mag. Time & Date
Minimum magnitude displayed is 2.5.

Coastal Water Temperatures

Place Temperature

Nearby Weather Stations

Winter Storm Watch
Statement as of 3:05 PM EST on February 27, 2015

... Winter Storm Watch in effect from Saturday evening through
Monday morning...

The National Weather Service in Cleveland has issued a Winter
Storm Watch... which is in effect from Saturday evening through
Monday morning.

* Snow accumulations... 6 to 10 inches possible.

* Snow is expected to spread into the area late Saturday evening
and spread across the area by midnight Saturday night.

* The heaviest snow is expected during the day on Sunday.

* The snow is expected to gradually end from west to east Sunday night.

* Impacts... snow will be the main threat during this event.
Hazardous travel conditions are expected due to reduced
visibility from the snow and snow accumulation.

Precautionary/preparedness actions...

A Winter Storm Watch means that heavy snow is possible. If you
are within the watch area... remain alert to rapidly changing
weather conditions. Stay tuned to the National Weather Service or
the local news media for the latest updates and possible
warnings.